Time;durP1;ratioP1;P1;durP2;ratioP2;P2;SDS_P1;SDS_P2;PMS_P1;PMS_P2;Temp;Humidity;BMP_temperature;BMP_pressure;BME280_temperature;BME280_humidity;BME280_pressure;Samples;Min_cycle;Max_cycle;Signal;HPM_P1;HPM_P2
2023/01/29 00:01:14;;;;;;;32.17;13.85;;;;;;;;;;5013521;28;20045;-74
2023/01/29 00:03:42;;;;;;;31.20;13.80;;;;;;;;;;5014061;28;20120;-74
2023/01/29 00:06:10;;;;;;;33.80;14.40;;;;;;;;;;5014563;28;20054;-74
2023/01/29 00:08:38;;;;;;;31.77;13.88;;;;;;;;;;5013931;28;20492;-74
2023/01/29 00:11:07;;;;;;;31.17;13.73;;;;;;;;;;5014390;28;20077;-74
2023/01/29 00:13:34;;;;;;;35.03;14.45;;;;;;;;;;5012893;28;20054;-74
2023/01/29 00:16:01;;;;;;;32.03;14.38;;;;;;;;;;5013104;28;20133;-74
2023/01/29 00:18:29;;;;;;;33.28;13.70;;;;;;;;;;5012627;28;20535;-74
2023/01/29 00:20:57;;;;;;;33.58;14.05;;;;;;;;;;5013092;28;20331;-74
2023/01/29 00:23:23;;;;;;;34.40;15.00;;;;;;;;;;5012850;28;20038;-75
2023/01/29 00:25:50;;;;;;;34.20;13.80;;;;;;;;;;5012761;28;20513;-74
2023/01/29 00:28:17;;;;;;;34.72;14.00;;;;;;;;;;5012927;28;20650;-74
2023/01/29 00:30:43;;;;;;;33.88;14.88;;;;;;;;;;5012779;28;20408;-74
2023/01/29 00:33:10;;;;;;;33.28;14.70;;;;;;;;;;5012466;28;20073;-74
2023/01/29 00:35:40;;;;;;;31.63;14.52;;;;;;;;;;5014727;28;20136;-73
2023/01/29 00:38:08;;;;;;;31.75;14.40;;;;;;;;;;5017005;28;20042;-73
2023/01/29 00:46:06;;;;;;;30.38;13.02;;;;;;;;;;4991549;28;20046;-74
2023/01/29 00:48:33;;;;;;;29.88;12.88;;;;;;;;;;5012744;28;20046;-75
2023/01/29 00:51:00;;;;;;;31.05;13.32;;;;;;;;;;5012866;28;20046;-74
2023/01/29 00:53:30;;;;;;;30.42;12.85;;;;;;;;;;5012369;28;20477;-75
2023/01/29 00:55:57;;;;;;;24.97;12.20;;;;;;;;;;5013083;28;20081;-74
2023/01/29 00:58:27;;;;;;;29.23;12.32;;;;;;;;;;5012226;28;20279;-74
2023/01/29 01:00:54;;;;;;;29.45;12.68;;;;;;;;;;5012338;28;20129;-74
2023/01/29 01:03:20;;;;;;;29.33;12.85;;;;;;;;;;5012411;28;20061;-74
2023/01/29 01:05:47;;;;;;;29.33;12.85;;;;;;;;;;5011228;28;20053;-75
2023/01/29 01:11:03;;;;;;;29.70;11.88;;;;;;;;;;5011298;28;20173;-75
2023/01/29 01:13:32;;;;;;;24.48;12.05;;;;;;;;;;5011336;28;20050;-77
2023/01/29 01:15:58;;;;;;;27.65;11.73;;;;;;;;;;5001134;28;20406;-74
2023/01/29 01:18:29;;;;;;;28.33;12.38;;;;;;;;;;5006448;28;20052;-74
2023/01/29 01:20:58;;;;;;;27.17;11.98;;;;;;;;;;5010858;28;20046;-74
2023/01/29 01:23:25;;;;;;;26.08;12.57;;;;;;;;;;5010999;28;20501;-74
2023/01/29 01:25:51;;;;;;;27.05;13.10;;;;;;;;;;5011461;28;20520;-74
2023/01/29 01:28:19;;;;;;;24.23;11.35;;;;;;;;;;5009515;28;20516;-74
2023/01/29 01:30:46;;;;;;;25.10;11.40;;;;;;;;;;5013281;28;20133;-74
2023/01/29 01:33:13;;;;;;;24.38;11.48;;;;;;;;;;5012769;28;20046;-75
2023/01/29 01:35:39;;;;;;;26.48;11.27;;;;;;;;;;5013063;28;20081;-74
2023/01/29 01:38:06;;;;;;;23.90;11.00;;;;;;;;;;5013365;28;20049;-75
2023/01/29 01:40:33;;;;;;;26.25;10.85;;;;;;;;;;5012688;28;20050;-74
2023/01/29 01:43:01;;;;;;;28.20;11.88;;;;;;;;;;5013270;28;20534;-74
2023/01/29 01:45:31;;;;;;;20.83;9.73;;;;;;;;;;5013567;28;20050;-74
2023/01/29 01:48:00;;;;;;;21.75;10.38;;;;;;;;;;5014374;28;20129;-75
2023/01/29 01:50:31;;;;;;;20.05;9.48;;;;;;;;;;5014522;28;20060;-74
2023/01/29 01:53:02;;;;;;;23.17;9.90;;;;;;;;;;5013280;28;20061;-75
2023/01/29 01:55:31;;;;;;;20.60;9.13;;;;;;;;;;5012552;28;20046;-75
2023/01/29 01:58:03;;;;;;;16.50;9.05;;;;;;;;;;5012718;28;20042;-75
2023/01/29 02:00:31;;;;;;;17.55;7.93;;;;;;;;;;5012719;28;20042;-75
2023/01/29 02:11:16;;;;;;;17.27;8.02;;;;;;;;;;5012319;28;20120;-74
2023/01/29 02:13:43;;;;;;;15.27;7.45;;;;;;;;;;5012828;28;20046;-74
2023/01/29 02:16:11;;;;;;;15.82;7.30;;;;;;;;;;5012928;28;20050;-74
2023/01/29 02:18:39;;;;;;;15.63;7.95;;;;;;;;;;5012443;28;20501;-75
2023/01/29 02:21:36;;;;;;;14.38;6.95;;;;;;;;;;5012454;28;20050;-75
2023/01/29 02:24:41;;;;;;;13.82;6.95;;;;;;;;;;5012567;28;20048;-75
2023/01/29 02:27:10;;;;;;;14.60;6.82;;;;;;;;;;5012418;28;20061;-75
2023/01/29 02:29:50;;;;;;;13.25;6.80;;;;;;;;;;5011957;28;20049;-75
2023/01/29 02:32:23;;;;;;;12.00;7.00;;;;;;;;;;5012067;28;20129;-75
2023/01/29 02:37:53;;;;;;;16.65;7.25;;;;;;;;;;5011876;28;20057;-75
2023/01/29 02:40:28;;;;;;;17.52;7.25;;;;;;;;;;5000672;28;20108;-75
2023/01/29 02:43:06;;;;;;;15.52;8.23;;;;;;;;;;5012290;28;20045;-75
2023/01/29 02:45:43;;;;;;;15.50;6.82;;;;;;;;;;5012298;28;20049;-74
2023/01/29 02:48:11;;;;;;;15.60;7.38;;;;;;;;;;5012095;28;20048;-75
2023/01/29 02:50:45;;;;;;;16.33;7.88;;;;;;;;;;5011776;28;20050;-75
2023/01/29 02:53:15;;;;;;;15.45;7.40;;;;;;;;;;5011958;28;20193;-75
2023/01/29 02:55:48;;;;;;;19.55;8.43;;;;;;;;;;5012694;28;20056;-75
2023/01/29 02:58:20;;;;;;;16.73;7.95;;;;;;;;;;5014406;28;20420;-75
2023/01/29 03:00:50;;;;;;;16.13;8.30;;;;;;;;;;5011599;28;20523;-75
2023/01/29 03:03:20;;;;;;;16.60;7.60;;;;;;;;;;5011627;28;20512;-74
2023/01/29 03:05:57;;;;;;;13.63;8.20;;;;;;;;;;5013463;28;20064;-75
2023/01/29 03:08:36;;;;;;;17.17;8.32;;;;;;;;;;5015672;28;20424;-75
2023/01/29 03:11:05;;;;;;;19.40;9.38;;;;;;;;;;5015737;28;20061;-75
2023/01/29 03:13:38;;;;;;;15.63;7.95;;;;;;;;;;5015146;28;20436;-74
2023/01/29 03:16:12;;;;;;;17.67;8.27;;;;;;;;;;5015222;28;20481;-75
2023/01/29 03:18:45;;;;;;;16.25;7.88;;;;;;;;;;5015389;28;20052;-74
2023/01/29 03:32:20;;;;;;;16.25;8.50;;;;;;;;;;5014978;28;20056;-75
2023/01/29 03:34:52;;;;;;;17.45;8.32;;;;;;;;;;5015448;28;20046;-74
2023/01/29 03:37:23;;;;;;;19.25;9.27;;;;;;;;;;5015201;28;20057;-75
2023/01/29 03:39:50;;;;;;;21.23;9.82;;;;;;;;;;5014698;28;20428;-74
2023/01/29 03:42:24;;;;;;;18.23;9.13;;;;;;;;;;5014670;28;20424;-74
2023/01/29 03:44:57;;;;;;;19.40;8.55;;;;;;;;;;5014918;28;20073;-75
2023/01/29 03:47:33;;;;;;;16.98;8.93;;;;;;;;;;5015761;28;20136;-75
2023/01/29 03:50:04;;;;;;;24.73;10.00;;;;;;;;;;5014707;28;20069;-74
2023/01/29 03:52:41;;;;;;;20.55;10.25;;;;;;;;;;5014501;28;20061;-74
2023/01/29 03:55:13;;;;;;;21.15;9.85;;;;;;;;;;5007317;28;20046;-74
2023/01/29 03:57:44;;;;;;;16.88;8.75;;;;;;;;;;5014972;28;20046;-74
2023/01/29 04:00:14;;;;;;;;;;;;;;;;;;5015198;28;20088;-74
2023/01/29 04:02:49;;;;;;;20.17;9.32;;;;;;;;;;5014858;28;20351;-74
2023/01/29 04:05:18;;;;;;;17.55;9.43;;;;;;;;;;5014400;28;20049;-73
2023/01/29 04:07:46;;;;;;;20.75;9.35;;;;;;;;;;5014432;28;20045;-75
2023/01/29 04:10:16;;;;;;;19.85;9.52;;;;;;;;;;5014642;28;20461;-75
2023/01/29 04:12:46;;;;;;;20.60;9.88;;;;;;;;;;5014676;28;20053;-75
2023/01/29 04:15:15;;;;;;;21.83;10.53;;;;;;;;;;5014908;28;20054;-75
2023/01/29 04:17:48;;;;;;;18.95;9.88;;;;;;;;;;5015211;28;20045;-74
2023/01/29 04:20:16;;;;;;;20.08;10.05;;;;;;;;;;5015016;28;20070;-75
2023/01/29 04:22:45;;;;;;;17.60;9.63;;;;;;;;;;5015616;28;20073;-74
2023/01/29 04:25:15;;;;;;;21.17;10.05;;;;;;;;;;5014654;28;20045;-75
2023/01/29 04:27:49;;;;;;;21.40;9.68;;;;;;;;;;5014835;28;20042;-74
2023/01/29 04:30:23;;;;;;;16.63;8.55;;;;;;;;;;5014456;28;20477;-75
2023/01/29 04:33:02;;;;;;;20.15;9.48;;;;;;;;;;5014150;28;20547;-74
2023/01/29 04:35:32;;;;;;;19.38;8.52;;;;;;;;;;5014202;28;20053;-74
2023/01/29 04:38:09;;;;;;;20.02;10.18;;;;;;;;;;5014648;28;20054;-74
2023/01/29 04:40:46;;;;;;;22.02;10.43;;;;;;;;;;5015095;28;20046;-74
2023/01/29 04:43:18;;;;;;;18.83;8.68;;;;;;;;;;5014926;28;20049;-74
2023/01/29 04:45:54;;;;;;;20.63;10.20;;;;;;;;;;5014922;28;20048;-74
2023/01/29 04:48:26;;;;;;;21.55;10.23;;;;;;;;;;5014222;28;20137;-74
2023/01/29 04:50:57;;;;;;;20.63;9.77;;;;;;;;;;5013939;28;20516;-74
2023/01/29 04:53:33;;;;;;;23.35;9.43;;;;;;;;;;5013751;28;20144;-74
2023/01/29 04:56:07;;;;;;;22.98;10.13;;;;;;;;;;5000947;28;20489;-75
2023/01/29 04:58:38;;;;;;;19.45;9.50;;;;;;;;;;5014008;28;20454;-75
2023/01/29 05:01:08;;;;;;;20.85;10.52;;;;;;;;;;5013829;28;20053;-75
2023/01/29 05:03:37;;;;;;;22.13;9.35;;;;;;;;;;5013861;28;20045;-74
2023/01/29 05:06:05;;;;;;;23.65;10.77;;;;;;;;;;5013219;28;20420;-75
2023/01/29 05:08:33;;;;;;;22.70;10.07;;;;;;;;;;4994313;28;20050;-74
2023/01/29 05:11:00;;;;;;;25.70;10.23;;;;;;;;;;4995845;28;20050;-75
2023/01/29 05:13:29;;;;;;;21.80;10.52;;;;;;;;;;4996253;28;20413;-74
2023/01/29 05:16:02;;;;;;;25.08;11.00;;;;;;;;;;4996121;28;20053;-74
2023/01/29 05:18:29;;;;;;;21.00;9.77;;;;;;;;;;4994766;28;20462;-74
2023/01/29 05:21:09;;;;;;;22.98;11.00;;;;;;;;;;4994019;28;20046;-73
2023/01/29 05:23:37;;;;;;;21.23;10.68;;;;;;;;;;4992314;28;20538;-75
2023/01/29 05:26:04;;;;;;;21.35;10.25;;;;;;;;;;5012397;28;20064;-74
2023/01/29 05:28:29;;;;;;;24.85;11.85;;;;;;;;;;5012126;28;20504;-73
2023/01/29 05:30:57;;;;;;;20.63;9.60;;;;;;;;;;5013137;28;20112;-74
2023/01/29 05:33:25;;;;;;;18.95;9.27;;;;;;;;;;5013040;28;20053;-74
2023/01/29 05:35:52;;;;;;;19.73;9.32;;;;;;;;;;5013323;28;20045;-75
2023/01/29 05:38:20;;;;;;;20.30;10.32;;;;;;;;;;5012778;28;20042;-75
2023/01/29 05:40:47;;;;;;;22.30;10.23;;;;;;;;;;5041367;22;20072;-79
2023/01/29 05:43:16;;;;;;;20.20;9.40;;;;;;;;;;5037780;28;20432;-81
2023/01/29 05:45:43;;;;;;;17.05;10.32;;;;;;;;;;5038327;28;20061;-81
2023/01/29 05:48:10;;;;;;;21.50;9.65;;;;;;;;;;5023476;28;20049;-81
2023/01/29 05:50:36;;;;;;;19.83;9.73;;;;;;;;;;5018100;28;20049;-80
2023/01/29 05:53:03;;;;;;;20.70;9.88;;;;;;;;;;5017746;28;20543;-80
2023/01/29 05:55:31;;;;;;;16.50;9.35;;;;;;;;;;5020260;28;20416;-79
2023/01/29 05:57:57;;;;;;;19.33;9.38;;;;;;;;;;5029934;28;20041;-80
2023/01/29 06:00:24;;;;;;;20.88;10.05;;;;;;;;;;5040940;28;20391;-79
2023/01/29 06:02:51;;;;;;;20.58;9.98;;;;;;;;;;5042145;28;20109;-79
2023/01/29 06:05:17;;;;;;;23.05;9.90;;;;;;;;;;5031503;28;20041;-79
2023/01/29 06:07:45;;;;;;;20.42;9.90;;;;;;;;;;5021004;28;20049;-80
2023/01/29 06:10:13;;;;;;;20.90;9.52;;;;;;;;;;5037170;28;20095;-80
2023/01/29 06:12:41;;;;;;;21.42;9.60;;;;;;;;;;5043142;28;20049;-78
2023/01/29 06:15:09;;;;;;;20.05;9.18;;;;;;;;;;5044084;28;20423;-78
2023/01/29 06:17:35;;;;;;;18.40;9.77;;;;;;;;;;5038149;28;20049;-79
2023/01/29 06:20:02;;;;;;;20.02;9.15;;;;;;;;;;5033447;28;20056;-79
2023/01/29 06:22:29;;;;;;;21.48;10.40;;;;;;;;;;5033841;28;20045;-80
2023/01/29 06:24:55;;;;;;;21.88;10.75;;;;;;;;;;5034772;28;20042;-80
2023/01/29 06:27:22;;;;;;;22.10;11.02;;;;;;;;;;5035942;28;20053;-80
2023/01/29 06:29:50;;;;;;;22.45;10.27;;;;;;;;;;5035920;28;20067;-79
2023/01/29 06:32:16;;;;;;;21.65;8.98;;;;;;;;;;5035903;28;20128;-80
2023/01/29 06:34:43;;;;;;;20.45;10.02;;;;;;;;;;5036755;28;20049;-80
2023/01/29 06:37:09;;;;;;;20.88;10.88;;;;;;;;;;5036331;28;20128;-80
2023/01/29 06:39:36;;;;;;;18.13;9.40;;;;;;;;;;5036465;28;20046;-79
2023/01/29 06:42:03;;;;;;;18.77;10.02;;;;;;;;;;5040359;28;20673;-79
2023/01/29 06:44:29;;;;;;;20.95;9.60;;;;;;;;;;5037968;28;20061;-77
2023/01/29 06:46:57;;;;;;;21.48;10.27;;;;;;;;;;5038353;28;20071;-79
2023/01/29 06:49:24;;;;;;;24.30;11.30;;;;;;;;;;5038780;28;20045;-80
2023/01/29 06:51:50;;;;;;;22.23;10.05;;;;;;;;;;5039217;28;20041;-80
2023/01/29 06:54:17;;;;;;;22.63;10.07;;;;;;;;;;5039119;28;20118;-79
2023/01/29 06:56:44;;;;;;;23.05;10.43;;;;;;;;;;5025316;28;20064;-81
2023/01/29 06:59:11;;;;;;;23.60;9.98;;;;;;;;;;5024259;28;20407;-81
2023/01/29 07:01:41;;;;;;;18.13;10.10;;;;;;;;;;5020022;28;20065;-79
2023/01/29 07:04:08;;;;;;;20.45;9.95;;;;;;;;;;5020043;28;20081;-79
2023/01/29 07:06:35;;;;;;;20.85;9.75;;;;;;;;;;5037009;28;20060;-80
2023/01/29 07:09:02;;;;;;;19.08;9.52;;;;;;;;;;5039045;28;20061;-79
2023/01/29 07:11:29;;;;;;;18.75;9.43;;;;;;;;;;5039326;28;20491;-79
2023/01/29 07:13:55;;;;;;;22.70;9.73;;;;;;;;;;5039090;28;20128;-80
2023/01/29 07:16:22;;;;;;;18.02;9.38;;;;;;;;;;5043332;28;20061;-81
2023/01/29 07:18:48;;;;;;;21.90;10.05;;;;;;;;;;5040149;28;20073;-79
2023/01/29 07:21:16;;;;;;;24.73;10.40;;;;;;;;;;5040785;28;20045;-80
2023/01/29 07:23:43;;;;;;;22.73;10.88;;;;;;;;;;5040599;28;20560;-80
2023/01/29 07:26:11;;;;;;;17.85;9.63;;;;;;;;;;5040090;28;20519;-80
2023/01/29 07:28:38;;;;;;;24.25;9.70;;;;;;;;;;5047646;28;20492;-79
2023/01/29 07:31:05;;;;;;;23.27;10.98;;;;;;;;;;5051128;28;20037;-80
2023/01/29 07:33:32;;;;;;;21.63;9.68;;;;;;;;;;5049213;28;20136;-81
2023/01/29 07:35:58;;;;;;;19.63;9.70;;;;;;;;;;5051702;28;20046;-79
2023/01/29 07:38:26;;;;;;;23.83;9.68;;;;;;;;;;5042813;28;20042;-80
2023/01/29 07:40:53;;;;;;;18.02;8.88;;;;;;;;;;5040932;28;20056;-81
2023/01/29 07:43:20;;;;;;;20.30;9.02;;;;;;;;;;5042347;28;20084;-81
2023/01/29 07:45:46;;;;;;;22.95;10.38;;;;;;;;;;5041675;28;20045;-80
2023/01/29 07:48:13;;;;;;;25.35;11.00;;;;;;;;;;5041057;28;20053;-81
2023/01/29 07:50:40;;;;;;;21.48;9.88;;;;;;;;;;5039700;28;20041;-80
2023/01/29 07:53:07;;;;;;;18.20;9.13;;;;;;;;;;5040706;28;20128;-80
2023/01/29 07:55:35;;;;;;;15.52;8.35;;;;;;;;;;5041156;28;20045;-80
2023/01/29 07:58:03;;;;;;;21.98;9.77;;;;;;;;;;5040709;28;20056;-80
2023/01/29 08:00:31;;;;;;;18.05;8.70;;;;;;;;;;5040564;28;20507;-80
2023/01/29 08:03:02;;;;;;;28.00;11.65;;;;;;;;;;5040732;28;20105;-81
2023/01/29 08:05:29;;;;;;;21.27;9.93;;;;;;;;;;5032382;28;20129;-81
2023/01/29 08:07:55;;;;;;;19.48;10.65;;;;;;;;;;5022301;28;20144;-80
2023/01/29 08:10:22;;;;;;;18.45;9.18;;;;;;;;;;5038736;28;20049;-81
2023/01/29 08:12:55;;;;;;;15.30;8.52;;;;;;;;;;5037496;28;20404;-79
2023/01/29 08:15:22;;;;;;;20.25;9.13;;;;;;;;;;5038912;28;20488;-79
2023/01/29 08:17:49;;;;;;;22.10;9.75;;;;;;;;;;5041664;28;20108;-79
2023/01/29 08:20:15;;;;;;;20.42;9.85;;;;;;;;;;5048326;28;20049;-78
2023/01/29 08:22:42;;;;;;;18.27;8.95;;;;;;;;;;5051506;28;20088;-79
2023/01/29 08:25:09;;;;;;;18.02;8.82;;;;;;;;;;5052425;28;20105;-78
2023/01/29 08:27:36;;;;;;;19.85;9.07;;;;;;;;;;5051222;28;20073;-80
2023/01/29 08:30:04;;;;;;;19.05;8.80;;;;;;;;;;5049638;28;20097;-80
2023/01/29 08:32:31;;;;;;;22.95;9.32;;;;;;;;;;5038553;28;20052;-81
2023/01/29 08:34:58;;;;;;;21.83;9.50;;;;;;;;;;5039213;28;20416;-81
2023/01/29 08:37:24;;;;;;;19.63;9.45;;;;;;;;;;5039253;28;20050;-80
2023/01/29 08:39:51;;;;;;;20.33;9.27;;;;;;;;;;5040458;28;20053;-81
2023/01/29 08:42:17;;;;;;;17.20;8.23;;;;;;;;;;5038545;28;20117;-81
2023/01/29 08:44:44;;;;;;;21.60;9.48;;;;;;;;;;5039207;28;20528;-80
2023/01/29 08:47:12;;;;;;;21.05;9.60;;;;;;;;;;5040332;28;20374;-80
2023/01/29 08:49:39;;;;;;;21.45;10.48;;;;;;;;;;5040061;28;20084;-80
2023/01/29 08:52:05;;;;;;;21.52;9.93;;;;;;;;;;5039487;28;20045;-81
2023/01/29 08:54:32;;;;;;;20.35;9.90;;;;;;;;;;5039813;28;20073;-80
2023/01/29 08:56:58;;;;;;;24.85;10.30;;;;;;;;;;5039574;28;20067;-81
2023/01/29 08:59:25;;;;;;;23.42;10.40;;;;;;;;;;5040213;28;20049;-81
2023/01/29 09:01:52;;;;;;;20.10;9.88;;;;;;;;;;5038732;28;20108;-81
2023/01/29 09:04:19;;;;;;;20.30;10.45;;;;;;;;;;5038885;28;20120;-80
2023/01/29 09:06:46;;;;;;;20.85;9.60;;;;;;;;;;5020285;28;20046;-79
2023/01/29 09:09:13;;;;;;;21.08;9.93;;;;;;;;;;5032055;28;20049;-80
2023/01/29 09:11:40;;;;;;;23.52;11.23;;;;;;;;;;5038947;28;20045;-82
2023/01/29 09:14:07;;;;;;;22.67;9.95;;;;;;;;;;5038896;28;20046;-80
2023/01/29 09:16:33;;;;;;;23.25;9.70;;;;;;;;;;5038713;28;20083;-80
2023/01/29 09:19:00;;;;;;;21.15;10.45;;;;;;;;;;5038324;28;20045;-81
2023/01/29 09:21:28;;;;;;;24.08;9.90;;;;;;;;;;5038795;28;20117;-82
2023/01/29 09:23:54;;;;;;;25.17;11.75;;;;;;;;;;5039024;28;20072;-81
2023/01/29 09:26:21;;;;;;;24.02;9.73;;;;;;;;;;5038547;28;20045;-80
2023/01/29 09:28:47;;;;;;;22.08;9.68;;;;;;;;;;5037995;28;20136;-80
2023/01/29 09:31:14;;;;;;;21.60;9.95;;;;;;;;;;5040196;28;20053;-80
2023/01/29 09:33:41;;;;;;;23.05;10.95;;;;;;;;;;5041883;28;20056;-80
2023/01/29 09:36:08;;;;;;;19.02;10.13;;;;;;;;;;5039701;28;20067;-79
2023/01/29 09:38:36;;;;;;;19.92;9.85;;;;;;;;;;5038366;28;20524;-81
2023/01/29 09:41:16;;;;;;;19.92;10.05;;;;;;;;;;5038290;28;20046;-80
2023/01/29 09:43:47;;;;;;;21.53;9.30;;;;;;;;;;5038766;28;20124;-81
2023/01/29 09:46:19;;;;;;;24.73;10.35;;;;;;;;;;5039603;28;20712;-82
2023/01/29 09:48:48;;;;;;;20.23;9.85;;;;;;;;;;5040219;28;20132;-80
2023/01/29 09:51:24;;;;;;;24.40;10.98;;;;;;;;;;5038289;28;20120;-80
2023/01/29 09:53:58;;;;;;;20.40;10.63;;;;;;;;;;5040847;28;20109;-80
2023/01/29 09:56:27;;;;;;;23.10;10.65;;;;;;;;;;5040518;28;20129;-81
2023/01/29 09:58:57;;;;;;;20.88;9.93;;;;;;;;;;5039345;28;20113;-80
2023/01/29 10:01:29;;;;;;;20.55;10.18;;;;;;;;;;5038731;28;20508;-81
2023/01/29 10:04:29;;;;;;;19.80;9.65;;;;;;;;;;5038012;28;20109;-81
2023/01/29 10:07:07;;;;;;;24.40;9.97;;;;;;;;;;5005314;28;20137;-81
2023/01/29 10:10:00;;;;;;;18.85;9.20;;;;;;;;;;5035009;28;20329;-81
2023/01/29 10:12:44;;;;;;;21.90;10.68;;;;;;;;;;5039346;28;20055;-81
2023/01/29 10:15:22;;;;;;;20.77;9.27;;;;;;;;;;5039637;28;20041;-81
2023/01/29 10:18:12;;;;;;;22.30;10.82;;;;;;;;;;5040293;28;20053;-80
2023/01/29 10:20:51;;;;;;;21.63;10.48;;;;;;;;;;5020179;28;20046;-80
2023/01/29 10:23:24;;;;;;;22.70;10.77;;;;;;;;;;5025355;28;20526;-81
2023/01/29 10:25:53;;;;;;;23.15;10.98;;;;;;;;;;5038817;28;20100;-81
2023/01/29 10:28:24;;;;;;;21.40;10.63;;;;;;;;;;5039415;28;20113;-79
2023/01/29 10:30:54;;;;;;;20.73;10.02;;;;;;;;;;5031612;28;20075;-82
2023/01/29 10:33:29;;;;;;;22.02;9.98;;;;;;;;;;5038055;28;20466;-80
2023/01/29 10:36:00;;;;;;;20.55;10.40;;;;;;;;;;5037760;28;20060;-79
2023/01/29 10:38:45;;;;;;;19.13;9.55;;;;;;;;;;5037373;28;20393;-80
2023/01/29 10:41:29;;;;;;;19.60;9.35;;;;;;;;;;5037241;28;20085;-80
2023/01/29 10:44:10;;;;;;;19.92;9.60;;;;;;;;;;5038573;28;20465;-78
2023/01/29 10:46:51;;;;;;;18.48;9.23;;;;;;;;;;5038382;28;20053;-80
2023/01/29 10:49:33;;;;;;;20.15;9.05;;;;;;;;;;5035107;28;20049;-78
2023/01/29 10:52:11;;;;;;;18.80;9.35;;;;;;;;;;5036026;28;20080;-80
2023/01/29 10:54:50;;;;;;;19.67;9.85;;;;;;;;;;5038159;28;20049;-79
2023/01/29 10:57:31;;;;;;;21.63;9.70;;;;;;;;;;5048802;28;20113;-78
2023/01/29 11:00:11;;;;;;;19.33;10.05;;;;;;;;;;5048488;28;20054;-79
2023/01/29 11:02:44;;;;;;;22.08;11.07;;;;;;;;;;5046450;28;20291;-80
2023/01/29 11:05:20;;;;;;;17.48;9.80;;;;;;;;;;5032893;28;20053;-80
2023/01/29 11:07:48;;;;;;;19.20;9.30;;;;;;;;;;5018883;28;20046;-80
2023/01/29 11:10:19;;;;;;;21.10;9.95;;;;;;;;;;5037539;28;20073;-79
2023/01/29 11:12:48;;;;;;;20.50;10.32;;;;;;;;;;5037824;28;20138;-80
2023/01/29 11:15:19;;;;;;;24.10;10.85;;;;;;;;;;5038138;28;20076;-80
2023/01/29 11:18:01;;;;;;;18.95;9.73;;;;;;;;;;5037335;28;20081;-80
2023/01/29 11:20:29;;;;;;;18.52;9.00;;;;;;;;;;5037504;28;20049;-80
2023/01/29 11:22:56;;;;;;;20.15;9.50;;;;;;;;;;5036930;28;20049;-79
2023/01/29 11:25:23;;;;;;;24.27;10.00;;;;;;;;;;5037449;28;20049;-78
2023/01/29 11:27:54;;;;;;;21.92;10.73;;;;;;;;;;5041750;28;20454;-79
2023/01/29 11:30:24;;;;;;;24.02;11.18;;;;;;;;;;5042412;28;20073;-81
2023/01/29 11:32:57;;;;;;;22.38;10.30;;;;;;;;;;5034387;28;20045;-80
2023/01/29 11:35:25;;;;;;;22.20;10.38;;;;;;;;;;5020249;28;20572;-79
2023/01/29 11:37:52;;;;;;;21.58;9.55;;;;;;;;;;5038745;28;20050;-79
2023/01/29 11:40:34;;;;;;;18.70;10.00;;;;;;;;;;5060676;28;20083;-80
2023/01/29 11:43:19;;;;;;;18.77;10.15;;;;;;;;;;5054035;28;20077;-79
2023/01/29 11:45:46;;;;;;;20.92;10.35;;;;;;;;;;5039585;28;20085;-78
2023/01/29 11:48:16;;;;;;;18.45;9.45;;;;;;;;;;5038891;28;20057;-78
2023/01/29 11:50:44;;;;;;;17.83;9.00;;;;;;;;;;5037236;28;20118;-80
2023/01/29 11:53:29;;;;;;;19.55;9.77;;;;;;;;;;5035695;28;20393;-80
2023/01/29 11:55:56;;;;;;;24.40;10.95;;;;;;;;;;5035278;28;20133;-78
2023/01/29 11:58:29;;;;;;;22.88;10.80;;;;;;;;;;5034967;28;20473;-79
2023/01/29 12:00:57;;;;;;;25.17;11.90;;;;;;;;;;5035756;28;20128;-79
2023/01/29 12:03:33;;;;;;;23.48;11.35;;;;;;;;;;5036159;28;20056;-80
2023/01/29 12:06:03;;;;;;;23.63;12.10;;;;;;;;;;5036425;28;20045;-81
2023/01/29 12:08:34;;;;;;;20.33;10.77;;;;;;;;;;5036830;28;20132;-80
2023/01/29 12:11:08;;;;;;;23.65;10.73;;;;;;;;;;5040561;28;20416;-78
2023/01/29 12:13:37;;;;;;;19.92;10.80;;;;;;;;;;5046789;28;20420;-79
2023/01/29 12:16:17;;;;;;;24.10;11.38;;;;;;;;;;5039424;28;20045;-79
2023/01/29 12:18:49;;;;;;;23.25;11.68;;;;;;;;;;5041671;28;20050;-79
2023/01/29 12:21:23;;;;;;;26.92;12.27;;;;;;;;;;5033481;28;20069;-82
2023/01/29 12:23:57;;;;;;;23.98;10.93;;;;;;;;;;5029543;28;20046;-81
2023/01/29 12:26:29;;;;;;;22.33;10.73;;;;;;;;;;5031408;28;20048;-80
2023/01/29 12:29:13;;;;;;;21.40;11.13;;;;;;;;;;5050950;28;20109;-82
2023/01/29 12:31:46;;;;;;;22.33;11.15;;;;;;;;;;5046372;28;20053;-83
2023/01/29 12:34:20;;;;;;;20.88;11.13;;;;;;;;;;5044531;28;20174;-79
2023/01/29 12:36:52;;;;;;;25.63;11.10;;;;;;;;;;5045670;28;20513;-82
2023/01/29 12:39:19;;;;;;;22.63;11.68;;;;;;;;;;5046413;28;20105;-81
2023/01/29 12:41:51;;;;;;;27.45;11.65;;;;;;;;;;5044340;28;20081;-80
2023/01/29 12:44:24;;;;;;;27.42;14.05;;;;;;;;;;5039849;28;20053;-83
2023/01/29 12:46:54;;;;;;;62.58;29.45;;;;;;;;;;5039551;28;20045;-82
2023/01/29 12:49:26;;;;;;;34.20;17.48;;;;;;;;;;5040250;28;20132;-83
2023/01/29 12:51:57;;;;;;;28.50;13.90;;;;;;;;;;5041411;28;20095;-82
2023/01/29 12:54:53;;;;;;;30.48;14.50;;;;;;;;;;5037971;28;20099;-82
2023/01/29 12:57:23;;;;;;;52.40;21.20;;;;;;;;;;5034681;28;20053;-81
2023/01/29 12:59:56;;;;;;;33.58;15.18;;;;;;;;;;5041626;28;20064;-82
2023/01/29 13:02:32;;;;;;;29.48;13.20;;;;;;;;;;5033276;28;20516;-80
2023/01/29 13:05:04;;;;;;;24.40;12.93;;;;;;;;;;5034446;28;20108;-78
2023/01/29 13:07:35;;;;;;;29.98;12.90;;;;;;;;;;5034794;28;20092;-80
2023/01/29 13:10:05;;;;;;;;;;;;;;;;;;5035404;28;20056;-80
2023/01/29 13:12:34;;;;;;;25.27;12.50;;;;;;;;;;5036685;28;19921;-80
2023/01/29 13:15:06;;;;;;;28.25;13.00;;;;;;;;;;5036263;28;20052;-80
2023/01/29 13:17:37;;;;;;;29.45;13.27;;;;;;;;;;5034759;28;20049;-79
2023/01/29 13:20:05;;;;;;;;;;;;;;;;;;5030805;28;20041;-81
2023/01/29 13:22:35;;;;;;;32.95;13.73;;;;;;;;;;5018760;28;19933;-81
2023/01/29 13:25:02;;;;;;;31.67;13.10;;;;;;;;;;5014636;28;20060;-79
2023/01/29 13:27:31;;;;;;;26.35;12.45;;;;;;;;;;5015157;28;20045;-80
2023/01/29 13:29:59;;;;;;;27.67;12.75;;;;;;;;;;5014743;28;20056;-80
2023/01/29 13:32:28;;;;;;;28.33;12.90;;;;;;;;;;5029918;28;20041;-79
2023/01/29 13:34:57;;;;;;;28.10;13.85;;;;;;;;;;5039564;28;20057;-80
2023/01/29 13:37:29;;;;;;;26.33;12.50;;;;;;;;;;5040672;28;20045;-80
2023/01/29 13:39:58;;;;;;;27.88;13.27;;;;;;;;;;5036483;28;20046;-81
2023/01/29 13:42:33;;;;;;;23.20;12.80;;;;;;;;;;5033496;28;20417;-81
2023/01/29 13:45:02;;;;;;;27.50;13.77;;;;;;;;;;5038223;28;20054;-83
2023/01/29 13:47:33;;;;;;;30.52;14.60;;;;;;;;;;5037366;28;20054;-82
2023/01/29 13:50:02;;;;;;;27.85;12.93;;;;;;;;;;5036152;28;20052;-83
2023/01/29 13:52:38;;;;;;;28.55;13.02;;;;;;;;;;5043123;28;20049;-82
2023/01/29 13:55:09;;;;;;;26.55;12.52;;;;;;;;;;5047802;28;20069;-80
2023/01/29 13:57:54;;;;;;;24.10;12.43;;;;;;;;;;5056200;28;20050;-81
2023/01/29 14:00:53;;;;;;;27.92;12.75;;;;;;;;;;5068186;28;20095;-82
2023/01/29 14:03:56;;;;;;;26.55;13.45;;;;;;;;;;5034969;28;20150;-81
2023/01/29 14:06:56;;;;;;;24.38;11.85;;;;;;;;;;5042312;28;20136;-80
2023/01/29 14:09:54;;;;;;;23.95;12.32;;;;;;;;;;5039488;28;20148;-82
2023/01/29 14:12:38;;;;;;;25.17;12.93;;;;;;;;;;5049710;28;20109;-81
2023/01/29 14:15:19;;;;;;;27.83;13.75;;;;;;;;;;5033846;28;20059;-81
2023/01/29 14:18:20;;;;;;;26.92;12.98;;;;;;;;;;5034725;28;20120;-82
2023/01/29 14:20:58;;;;;;;24.33;12.05;;;;;;;;;;5014393;28;20049;-82
2023/01/29 14:23:34;;;;;;;27.88;12.80;;;;;;;;;;5019846;28;20052;-82
2023/01/29 14:26:04;;;;;;;26.10;12.68;;;;;;;;;;5018820;28;20053;-81
2023/01/29 14:28:35;;;;;;;27.25;12.93;;;;;;;;;;5037388;28;20049;-81
2023/01/29 14:31:03;;;;;;;25.55;12.90;;;;;;;;;;5034916;28;20084;-82
2023/01/29 14:33:35;;;;;;;26.23;12.40;;;;;;;;;;5034158;28;20049;-85
2023/01/29 14:36:09;;;;;;;26.13;12.65;;;;;;;;;;5034867;28;20049;-82
2023/01/29 14:38:36;;;;;;;25.90;12.38;;;;;;;;;;5033762;28;20128;-82
2023/01/29 14:41:08;;;;;;;22.98;11.70;;;;;;;;;;5034780;28;20046;-81
2023/01/29 14:43:35;;;;;;;26.10;12.93;;;;;;;;;;5034875;28;20100;-81
2023/01/29 14:46:34;;;;;;;23.50;11.93;;;;;;;;;;5034737;28;20484;-81
2023/01/29 14:49:01;;;;;;;23.25;12.00;;;;;;;;;;5022221;28;20056;-82
2023/01/29 14:51:34;;;;;;;25.60;11.98;;;;;;;;;;5034017;28;20050;-81
2023/01/29 14:54:04;;;;;;;21.75;11.63;;;;;;;;;;5031864;28;20104;-80
2023/01/29 14:56:34;;;;;;;24.60;11.60;;;;;;;;;;5033349;28;20073;-80
2023/01/29 14:59:14;;;;;;;28.98;12.95;;;;;;;;;;5032747;28;20045;-80
2023/01/29 15:01:48;;;;;;;21.15;11.18;;;;;;;;;;5034672;28;20707;-80
2023/01/29 15:04:18;;;;;;;25.95;12.88;;;;;;;;;;5038589;28;20049;-80
2023/01/29 15:06:47;;;;;;;26.45;13.23;;;;;;;;;;5039977;28;20037;-79
2023/01/29 15:09:17;;;;;;;24.83;13.55;;;;;;;;;;5037400;28;20053;-79
2023/01/29 15:11:51;;;;;;;22.30;12.35;;;;;;;;;;5036494;28;20416;-79
2023/01/29 15:14:24;;;;;;;24.60;12.15;;;;;;;;;;5037648;28;20045;-79
2023/01/29 15:17:02;;;;;;;21.52;11.57;;;;;;;;;;5037252;28;20052;-79